Vossem Meer informatie Vossem


Tervuren markt Meer informatie Tervuren markt


Tervuren park Meer informatie Tervuren park


Bezoek onze andere website:

Meteotemplate

Home Weather Station

Saratoga


Lokaal brand risico:
CBI


Regionaal brand risico: Meer informatie



Select another period ( hide this area )

Eenheden Periode Custom range Directly to
Metrisch Engels Beide
Dagelijkse Wekelijkse Maandelijkse Jaarlijkse
use both date-selectors for a custom range
previous Dag
With this date

WeatherUnderground graphs for this period ( click here )


Dagelijkse Samenvatting Zaterdag 19 oktober 2019
Tijd Temp. ( °C ) Dew pt. ( °C ) Wind ( km/h ) van Vlaag ( km/h ) Luchtdruk ( hPa ) Humid.( % ) Rainrate ( cm )
Hoog14,3 11,6 6,9 ZZW ( 46/258 ) 14,5 1005,6 94 3,30
Gemiddeld11,8 9,6 1,0 Kalm #169/269 3,2 1003,8 87 2,10
Laag8,4 7,1 -   0,0 1002,3 78 -
Dagelijkse Tabular details for Zaterdag 19 oktober 2019
Tijd Temp. ( °C ) Dew pt. ( °C ) Wind ( km/h ) van Vlaag ( km/h ) Luchtdruk ( hPa ) Humid.( % ) Rainrate ( cm )
00:00 10,9 7,9 1,8 OZO 4,8 1005,3 82 -
00:06 11,1 8,1 1,8 WZW 3,2 1005,3 82 -
00:10 11,1 8,0 3,2 ZZW 6,4 1005,3 81 -
00:16 11,2 8,1 1,8 WZW 4,8 1005,3 81 -
00:20 11,3 8,2   Kalm 3,2 1005,3 81 -
00:26 11,4 8,3 3,2 ZZO 6,4 1005,3 81 -
00:30 11,5 8,2 1,8 ZO 6,4 1005,3 80 -
00:36 11,6 8,3 5,0 Westen 4,8 1005,3 80 -
00:40 11,7 8,4 1,8 Westen 4,8 1005,0 80 -
00:46 11,7 8,4 1,8 Westen 3,2 1005,3 80 -
00:50 11,7 8,2   Kalm 6,4 1005,3 79 -
00:56 11,7 8,4 3,2 ZO 9,7 1005,0 80 -
01:00 11,7 8,2 1,8 ZW 9,7 1005,0 79 -
01:06 11,7 8,4 1,8 ZZW 3,2 1005,0 80 -
01:10 11,8 8,5 3,2 WZW 6,4 1004,6 80 -
01:16 11,7 8,4 1,8 ZO 3,2 1004,6 80 -
01:20 11,7 8,4 1,8 ZW 4,8 1004,6 80 -
01:26 11,7 8,4   Kalm 1,6 1004,6 80 -
01:30 11,7 8,4 1,8 WZW 3,2 1004,6 80 -
01:36 11,7 8,4   Kalm   1004,6 80 -
01:40 11,8 8,5 1,8 ZW 9,7 1004,6 80 -
01:46 11,8 8,5   Kalm 8,0 1004,6 80 -
01:50 11,8 8,5   Kalm 6,4 1004,6 80 -
01:56 11,8 8,5   Kalm   1004,6 80 -
02:00 11,8 8,5   Kalm   1004,6 80 -
02:06 11,7 8,5 1,8 WZW 4,8 1004,3 81 -
02:10 11,7 8,5   Kalm 6,4 1004,3 81 -
02:16 11,6 8,5 1,8 ZO 3,2 1004,3 81 -
02:20 11,6 8,6   Kalm 1,6 1004,3 82 -
02:26 11,6 8,6   Kalm 4,8 1003,9 82 -
02:30 11,5 8,5   Kalm 4,8 1004,3 82 -
02:36 11,4 8,4 1,8 ZZO 4,8 1004,3 82 -
02:40 11,4 8,6   Kalm 1,6 1003,9 83 -
02:46 11,4 8,6 1,8 ZO 4,8 1003,9 83 -
02:50 11,4 8,6   Kalm 3,2 1004,3 83 -
02:56 11,4 8,6   Kalm 4,8 1004,3 83 -
03:00 11,4 8,8 3,2 ZO 3,2 1003,9 84 -
03:06 11,3 8,7 5,0 Zuiden 4,8 1003,9 84 -
03:10 11,4 8,8   Kalm 4,8 1003,9 84 -
03:16 11,4 8,8 1,8 ZZO 6,4 1003,9 84 -
03:20 11,3 8,7   Kalm 1,6 1003,9 84 -
03:26 11,3 8,7   Kalm   1003,9 84 -
03:30 11,3 8,7   Kalm 6,4 1003,9 84 -
03:36 11,3 8,7   Kalm 1,6 1003,9 84 -
03:40 11,3 8,9   Kalm 4,8 1003,9 85 -
03:46 11,3 8,9   Kalm 1,6 1003,9 85 -
03:50 11,3 8,9 1,8 ZZO 8,0 1003,9 85 -
03:56 11,4 9,0 6,9 ZZW 6,4 1003,9 85 -
04:00 11,5 9,1 1,8 Westen 4,8 1003,9 85 -
04:06 11,6 9,3   Kalm 1,6 1003,9 86 -
04:10 11,7 9,4 1,8 ZZW 6,4 1003,9 86 -
04:16 11,8 9,4 1,8 ZW 4,8 1003,9 85 -
04:20 11,9 9,5 5,0 ZZO 8,0 1003,9 85 -
04:26 12,1 9,7 1,8 ZO 6,4 1003,9 85 -
04:30 12,1 9,7   Kalm 3,2 1003,9 85 -
04:36 12,2 9,8 5,0 ZW 14,5 1003,9 85 -
04:40 12,2 9,8 1,8 ZW 4,8 1003,9 85 -
04:46 12,1 9,8 1,8 ZZO 4,8 1003,9 86 -
04:50 12,1 9,8 1,8 WZW 4,8 1003,9 86 0,80
04:56 12,1 10,0 1,8 Zuiden 3,2 1003,9 87 0,80
05:00 12,0 10,1   Kalm 6,4 1003,9 88 1,50
05:06 11,9 10,0 3,2 ZW 4,8 1003,9 88 3,30
05:10 11,8 10,0 1,8 Westen 4,8 1003,6 89 2,50
05:16 11,8 10,0   Kalm 1,6 1003,9 89 1,80
05:20 11,7 9,9   Kalm   1003,6 89 1,50
05:26 11,7 10,1   Kalm   1003,6 90 0,80
05:30 11,6 10,0   Kalm 3,2 1003,6 90 0,80
05:36 11,6 10,0   Kalm 1,6 1003,6 90 0,80
05:40 11,6 10,0 1,8 ZO 4,8 1003,3 90 0,80
05:46 11,6 10,2   Kalm 3,2 1003,3 91 -
05:50 11,6 10,2   Kalm 1,6 1003,3 91 -
05:56 11,6 10,2   Kalm 1,6 1003,3 91 0,80
06:00 11,5 10,1   Kalm 1,6 1003,3 91 0,80
06:06 11,5 10,1   Kalm 1,6 1003,3 91 0,80
06:10 11,5 10,1   Kalm 6,4 1003,3 91 -
06:16 11,4 10,1   Kalm   1003,3 92 -
06:20 11,4 10,1   Kalm 3,2 1003,3 92 -
06:26 11,5 10,2 1,8 Zuiden 9,7 1003,3 92 0,80
06:30 11,5 10,2 1,8 ZZW 6,4 1002,9 92 0,80
06:36 11,5 10,2 5,0 ZZW 4,8 1003,3 92 0,80
06:40 11,5 10,2   Kalm 4,8 1002,9 92 0,80
06:46 11,5 10,2 3,2 ZZO 4,8 1002,9 92 -
06:50 11,5 10,2 1,8 ZZW 4,8 1002,9 92 -
06:56 11,4 10,1 1,8 ZW 6,4 1002,9 92 -
07:00 11,4 10,1 1,8 ZZW 4,8 1002,9 92 -
07:06 11,4 10,1   Kalm 1,6 1002,9 92 -
07:10 11,3 10,0   Kalm   1002,9 92 -
07:16 11,3 10,0   Kalm   1002,6 92 -
07:20 11,3 10,0   Kalm   1002,6 92 -
07:26 11,3 10,0   Kalm   1002,6 92 -
07:30 11,3 10,0   Kalm   1002,6 92 -
07:36 11,2 9,9   Kalm   1002,6 92 -
07:40 11,2 9,9   Kalm   1002,6 92 -
07:46 11,2 9,9   Kalm 4,8 1002,6 92 -
07:50 11,2 9,9   Kalm 1,6 1002,6 92 -
07:56 11,3 10,0 3,2 ZO 3,2 1002,6 92 -
08:00 11,3 10,0   Kalm 9,7 1002,6 92 -
08:06 11,3 10,0   Kalm 3,2 1002,3 92 -
08:10 11,3 10,0   Kalm 1,6 1002,3 92 -
08:16 11,3 10,0   Kalm 1,6 1002,6 92 -
08:20 11,3 10,0   Kalm 1,6 1002,6 92 -
08:26 11,3 10,2 1,8 OZO 3,2 1002,6 93 -
08:30 11,3 10,2   Kalm 3,2 1002,6 93 -
08:36 11,3 10,2   Kalm 3,2 1002,6 93 -
08:40 11,4 10,3   Kalm 3,2 1002,6 93 0,80
08:46 11,4 10,3 1,8 Zuiden 3,2 1002,6 93 0,80
08:50 11,4 10,3   Kalm 1,6 1002,6 93 0,80
08:56 11,4 10,3   Kalm 1,6 1002,6 93 -
09:00 11,4 10,3 1,8 ZO 3,2 1002,6 93 -
09:06 11,5 10,4 1,8 ZO 8,0 1002,9 93 -
09:10 11,6 10,5 1,8 ZW 8,0 1002,6 93 -
09:16 11,6 10,5   Kalm 3,2 1002,9 93 -
09:20 11,6 10,5 3,2 ZZO 4,8 1002,9 93 -
09:26 11,7 10,6 5,0 NW 8,0 1002,9 93 -
09:30 11,6 10,3 1,8 Westen 4,8 1003,3 92 -
09:36 11,2 9,8 3,2 WZW 4,8 1003,3 91 -
09:40 11,0 9,6   Kalm 3,2 1003,3 91 -
09:46 10,8 9,4 6,9 NNW 6,4 1003,3 91 0,80
09:50 10,7 9,3   Kalm 3,2 1003,3 91 0,80
09:56 10,7 9,5   Kalm 3,2 1003,3 92 0,80
10:00 10,7 9,5 1,8 WNW 1,6 1003,3 92 0,80
10:06 10,6 9,4   Kalm 3,2 1003,3 92 0,80
10:10 10,6 9,4   Kalm   1003,3 92 1,50
10:15 10,6 9,5   Kalm 4,8 1003,3 93 1,50
10:21 10,7 9,6   Kalm   1003,3 93 1,00
10:25 10,7 9,6   Kalm 3,2 1003,3 93 0,80
10:31 10,7 9,6 1,8 Westen 3,2 1003,3 93 -
10:35 10,7 9,6   Kalm 4,8 1003,3 93 -
10:41 10,8 9,7   Kalm 3,2 1003,3 93 0,80
10:45 10,8 9,7   Kalm 1,6 1003,3 93 0,80
10:51 10,9 9,8   Kalm 1,6 1003,3 93 0,80
10:55 11,0 9,9   Kalm 3,2 1003,3 93 -
11:01 11,2 10,1   Kalm 3,2 1003,3 93 -
11:05 11,2 10,1 1,8 ZW 1,6 1003,3 93 -
11:11 11,4 10,3 1,8 WZW 6,4 1003,3 93 -
11:15 11,5 10,4 3,2 WZW 4,8 1003,3 93 -
11:21 11,7 10,6 1,8 Westen 1,6 1003,6 93 -
11:25 11,7 10,6 1,8 WZW 3,2 1003,6 93 -
11:31 11,7 10,6 1,8 WZW 6,4 1003,6 93 -
11:35 11,8 10,7   Kalm 6,4 1003,6 93 -
11:41 11,8 10,5   Kalm 8,0 1003,3 92 -
11:45 11,8 10,5 1,8 ZO 4,8 1003,3 92 -
11:51 11,9 10,6 1,8 ZZW 6,4 1003,3 92 -
11:55 12,0 10,7   Kalm 8,0 1003,6 92 -
12:01 12,2 10,9   Kalm 1,6 1003,6 92 -
12:05 12,3 11,0 5,0 Westen 4,8 1003,3 92 -
12:11 12,4 11,0 3,2 WZW 3,2 1003,6 91 -
12:15 12,6 11,3   Kalm 4,8 1003,6 92 -
12:21 12,8 11,4 3,2 Westen 4,8 1003,6 91 -
12:25 12,9 11,3 3,2 ZZO 4,8 1003,6 90 -
12:31 13,2 11,4 3,2 ZO 6,4 1003,6 89 -
12:35 13,2 11,3 1,8 ZZW 3,2 1003,6 88 -
12:41 13,4 11,5   Kalm 4,8 1003,6 88 -
12:45 13,5 11,6 3,2 ZZW 3,2 1003,6 88 -
12:51 13,7 11,6   Kalm 3,2 1003,3 87 -
12:55 13,8 11,5 3,2 ZW 6,4 1003,3 86 -
13:01 13,8 11,0 1,8 ZZW 8,0 1003,3 83 -
13:05 13,8 11,0 3,2 ZZW 8,0 1003,3 83 -
13:11 13,8 11,0 1,8 ZO 4,8 1003,3 83 -
13:15 13,9 10,9 1,8 Westen 9,7 1003,3 82 -
13:21 14,1 11,3 3,2 Zuiden 4,8 1003,3 83 -
13:25 14,2 11,0 1,8 Westen 3,2 1003,3 81 -
13:31 14,2 10,8 5,0 ZW 6,4 1003,3 80 -
13:35 14,2 10,8 1,8 WZW 3,2 1002,9 80 -
13:41 14,2 10,6 1,8 ZZW 6,4 1003,3 79 -
13:45 14,1 10,7 5,0 WZW 6,4 1002,9 80 -
13:51 14,0 10,6   Kalm 6,4 1002,9 80 -
13:55 14,0 10,6   Kalm 3,2 1002,9 80 -
14:01 13,9 10,7 3,2 Zuiden 6,4 1003,3 81 -
14:05 13,9 10,7   Kalm   1003,3 81 -
14:11 13,9 10,5   Kalm 3,2 1003,3 80 -
14:15 14,0 10,8 1,8 WZW 4,8 1003,3 81 -
14:21 14,1 10,7   Kalm 3,2 1003,3 80 -
14:25 14,1 10,7   Kalm 1,6 1003,3 80 -
14:31 14,2 10,8 1,8 ZZW 6,4 1003,3 80 -
14:35 14,3 10,9   Kalm 4,8 1003,3 80 -
14:41 14,3 10,5   Kalm 4,8 1003,3 78 -
14:45 14,3 10,7   Kalm 4,8 1003,3 79 -
14:51 14,3 10,5   Kalm 1,6 1003,3 78 -
14:55 14,3 10,7 1,8 WZW 3,2 1003,3 79 -
15:01 14,3 10,5 5,0 OZO 4,8 1003,3 78 -
15:05 14,2 10,4 3,2 ZZW 6,4 1003,3 78 -
15:11 14,1 10,3   Kalm 3,2 1003,3 78 -
15:15 14,1 10,5 1,8 ZW 6,4 1003,3 79 -
15:21 14,1 10,3   Kalm 6,4 1003,3 78 -
15:25 14,1 10,5   Kalm 3,2 1003,3 79 -
15:31 14,1 10,5 3,2 ZW 3,2 1003,3 79 -
15:35 14,0 10,4   Kalm 4,8 1003,3 79 -
15:41 13,9 10,3 1,8 Zuiden 6,4 1003,3 79 -
15:45 13,9 10,1   Kalm 4,8 1003,3 78 -
15:51 13,8 10,2 1,8 Westen 4,8 1003,3 79 -
15:55 13,8 10,2   Kalm 4,8 1003,3 79 -
16:01 13,8 10,4 5,0 NNW 4,8 1003,3 80 -
16:05 13,9 10,3   Kalm 3,2 1003,3 79 -
16:11 13,9 10,3   Kalm 3,2 1003,3 79 -
16:15 13,9 10,3   Kalm 1,6 1003,3 79 -
16:21 13,8 10,2 3,2 ZZW 3,2 1003,3 79 -
16:25 13,8 10,2   Kalm 1,6 1003,6 79 -
16:31 13,8 10,4   Kalm 3,2 1003,3 80 -
16:35 13,8 10,4   Kalm 1,6 1003,6 80 -
16:41 13,7 10,3   Kalm 1,6 1003,6 80 -
16:45 13,7 10,3 1,8 Zuiden 3,2 1003,3 80 -
16:51 13,7 10,5   Kalm 3,2 1003,6 81 -
16:55 13,7 10,5   Kalm 4,8 1003,6 81 -
17:01 13,7 10,7 1,8 WZW 3,2 1003,6 82 -
17:05 13,6 10,6   Kalm 1,6 1003,6 82 -
17:11 13,6 10,6 1,8 Westen 3,2 1003,6 82 -
17:15 13,5 10,3   Kalm 4,8 1003,6 81 -
17:21 13,4 10,4   Kalm   1003,9 82 -
17:25 13,4 10,4   Kalm   1003,9 82 -
17:31 13,4 10,4   Kalm   1003,6 82 -
17:35 13,3 10,5   Kalm   1003,6 83 -
17:41 13,3 10,7   Kalm   1003,6 84 -
17:45 13,3 10,7   Kalm   1003,6 84 -
17:51 13,2 10,6   Kalm   1003,6 84 -
17:55 13,1 10,5   Kalm   1003,6 84 -
18:01 13,0 10,4   Kalm   1003,6 84 -
18:05 12,9 10,3   Kalm   1003,6 84 -
18:11 12,8 10,3   Kalm   1003,6 85 -
18:15 12,8 10,3   Kalm   1003,9 85 -
18:21 12,7 10,2   Kalm   1003,9 85 -
18:25 12,5 10,0   Kalm   1003,9 85 -
18:31 12,4 9,9   Kalm   1003,9 85 -
18:35 12,3 9,9   Kalm   1003,9 85 -
18:41 12,1 9,8   Kalm   1003,9 86 -
18:45 12,1 9,8   Kalm   1003,9 86 -
18:51 11,8 9,5   Kalm   1003,9 86 -
18:55 11,7 9,6   Kalm   1003,9 87 -
19:01 11,6 9,5   Kalm   1003,9 87 -
19:05 11,4 9,3   Kalm   1003,9 87 -
19:11 11,3 9,4   Kalm   1003,9 88 -
19:15 11,2 9,3   Kalm   1003,9 88 -
19:21 10,9 9,0   Kalm   1004,3 88 -
19:25 10,8 8,9   Kalm   1004,3 88 -
19:31 10,7 9,0   Kalm   1004,3 89 -
19:35 10,7 9,0   Kalm   1004,3 89 -
19:41 10,5 8,8   Kalm   1004,3 89 -
19:45 10,3 8,6   Kalm   1004,3 89 -
19:51 10,1 8,4   Kalm   1004,3 89 -
19:55 10,0 8,3   Kalm   1004,6 89 -
20:01 9,8 8,2   Kalm   1004,6 90 -
20:05 9,8 8,2   Kalm   1004,6 90 -
20:11 9,7 8,1   Kalm   1004,6 90 -
20:15 9,6 8,2   Kalm   1004,6 91 -
20:21 9,3 7,7   Kalm   1004,6 90 -
20:25 9,2 7,8   Kalm   1004,6 91 -
20:31 9,2 7,8   Kalm   1004,6 91 -
20:35 9,2 7,8   Kalm   1004,6 91 -
20:41 9,0 7,6   Kalm   1005,0 91 -
20:45 8,9 7,5   Kalm   1005,0 91 -
20:51 8,8 7,4   Kalm   1005,0 91 -
20:55 8,7 7,3   Kalm   1005,0 91 -
21:01 8,5 7,1   Kalm   1005,0 91 -
21:05 8,5 7,3   Kalm   1005,0 92 -
21:11 8,5 7,3   Kalm   1005,0 92 -
21:15 8,4 7,2   Kalm   1005,0 92 -
21:21 8,6 7,5   Kalm   1005,3 93 -
21:25 8,7 7,6   Kalm   1005,0 93 -
21:31 8,8 7,7   Kalm   1005,0 93 -
21:35 8,8 7,7   Kalm   1005,3 93 -
21:41 8,8 7,7   Kalm   1005,3 93 -
21:45 8,8 7,7   Kalm   1005,3 93 -
21:51 9,1 8,2   Kalm   1005,3 94 -
21:55 9,1 8,2   Kalm   1005,3 94 -
22:01 9,1 8,2   Kalm   1005,3 94 -
22:05 9,1 8,2   Kalm   1005,6 94 -
22:11 9,1 8,2   Kalm   1005,3 94 -
22:15 9,2 8,3   Kalm   1005,6 94 -
22:21 9,3 8,4   Kalm   1005,6 94 -
Dagelijkse Samenvatting Zaterdag 19 oktober 2019
Tijd Temp. ( °C ) Dew pt. ( °C ) Wind ( km/h ) van Vlaag ( km/h ) Luchtdruk ( hPa ) Humid.( % ) Rainrate ( cm )
Hoog14,3 11,6 6,9 ZZW ( 46/258 ) 14,5 1005,6 94 3,30
Gemiddeld11,8 9,6 1,0 Kalm #169/269 3,2 1003,8 87 2,10
Laag8,4 7,1 -   0,0 1002,3 78 -
Dagelijkse Tabular details for Zaterdag 19 oktober 2019
Tijd Temp. ( °C ) Dew pt. ( °C ) Wind ( km/h ) van Vlaag ( km/h ) Luchtdruk ( hPa ) Humid.( % ) Rainrate ( cm )
00:00 10,9 7,9 1,8 OZO 4,8 1005,3 82 -
00:06 11,1 8,1 1,8 WZW 3,2 1005,3 82 -
00:10 11,1 8,0 3,2 ZZW 6,4 1005,3 81 -
00:16 11,2 8,1 1,8 WZW 4,8 1005,3 81 -
00:20 11,3 8,2   Kalm 3,2 1005,3 81 -
00:26 11,4 8,3 3,2 ZZO 6,4 1005,3 81 -
00:30 11,5 8,2 1,8 ZO 6,4 1005,3 80 -
00:36 11,6 8,3 5,0 Westen 4,8 1005,3 80 -
00:40 11,7 8,4 1,8 Westen 4,8 1005,0 80 -
00:46 11,7 8,4 1,8 Westen 3,2 1005,3 80 -
00:50 11,7 8,2   Kalm 6,4 1005,3 79 -
00:56 11,7 8,4 3,2 ZO 9,7 1005,0 80 -
01:00 11,7 8,2 1,8 ZW 9,7 1005,0 79 -
01:06 11,7 8,4 1,8 ZZW 3,2 1005,0 80 -
01:10 11,8 8,5 3,2 WZW 6,4 1004,6 80 -
01:16 11,7 8,4 1,8 ZO 3,2 1004,6 80 -
01:20 11,7 8,4 1,8 ZW 4,8 1004,6 80 -
01:26 11,7 8,4   Kalm 1,6 1004,6 80 -
01:30 11,7 8,4 1,8 WZW 3,2 1004,6 80 -
01:36 11,7 8,4   Kalm   1004,6 80 -
01:40 11,8 8,5 1,8 ZW 9,7 1004,6 80 -
01:46 11,8 8,5   Kalm 8,0 1004,6 80 -
01:50 11,8 8,5   Kalm 6,4 1004,6 80 -
01:56 11,8 8,5   Kalm   1004,6 80 -
02:00 11,8 8,5   Kalm   1004,6 80 -
02:06 11,7 8,5 1,8 WZW 4,8 1004,3 81 -
02:10 11,7 8,5   Kalm 6,4 1004,3 81 -
02:16 11,6 8,5 1,8 ZO 3,2 1004,3 81 -
02:20 11,6 8,6   Kalm 1,6 1004,3 82 -
02:26 11,6 8,6   Kalm 4,8 1003,9 82 -
02:30 11,5 8,5   Kalm 4,8 1004,3 82 -
02:36 11,4 8,4 1,8 ZZO 4,8 1004,3 82 -
02:40 11,4 8,6   Kalm 1,6 1003,9 83 -
02:46 11,4 8,6 1,8 ZO 4,8 1003,9 83 -
02:50 11,4 8,6   Kalm 3,2 1004,3 83 -
02:56 11,4 8,6   Kalm 4,8 1004,3 83 -
03:00 11,4 8,8 3,2 ZO 3,2 1003,9 84 -
03:06 11,3 8,7 5,0 Zuiden 4,8 1003,9 84 -
03:10 11,4 8,8   Kalm 4,8 1003,9 84 -
03:16 11,4 8,8 1,8 ZZO 6,4 1003,9 84 -
03:20 11,3 8,7   Kalm 1,6 1003,9 84 -
03:26 11,3 8,7   Kalm   1003,9 84 -
03:30 11,3 8,7   Kalm 6,4 1003,9 84 -
03:36 11,3 8,7   Kalm 1,6 1003,9 84 -
03:40 11,3 8,9   Kalm 4,8 1003,9 85 -
03:46 11,3 8,9   Kalm 1,6 1003,9 85 -
03:50 11,3 8,9 1,8 ZZO 8,0 1003,9 85 -
03:56 11,4 9,0 6,9 ZZW 6,4 1003,9 85 -
04:00 11,5 9,1 1,8 Westen 4,8 1003,9 85 -
04:06 11,6 9,3   Kalm 1,6 1003,9 86 -
04:10 11,7 9,4 1,8 ZZW 6,4 1003,9 86 -
04:16 11,8 9,4 1,8 ZW 4,8 1003,9 85 -
04:20 11,9 9,5 5,0 ZZO 8,0 1003,9 85 -
04:26 12,1 9,7 1,8 ZO 6,4 1003,9 85 -
04:30 12,1 9,7   Kalm 3,2 1003,9 85 -
04:36 12,2 9,8 5,0 ZW 14,5 1003,9 85 -
04:40 12,2 9,8 1,8 ZW 4,8 1003,9 85 -
04:46 12,1 9,8 1,8 ZZO 4,8 1003,9 86 -
04:50 12,1 9,8 1,8 WZW 4,8 1003,9 86 0,80
04:56 12,1 10,0 1,8 Zuiden 3,2 1003,9 87 0,80
05:00 12,0 10,1   Kalm 6,4 1003,9 88 1,50
05:06 11,9 10,0 3,2 ZW 4,8 1003,9 88 3,30
05:10 11,8 10,0 1,8 Westen 4,8 1003,6 89 2,50
05:16 11,8 10,0   Kalm 1,6 1003,9 89 1,80
05:20 11,7 9,9   Kalm   1003,6 89 1,50
05:26 11,7 10,1   Kalm   1003,6 90 0,80
05:30 11,6 10,0   Kalm 3,2 1003,6 90 0,80
05:36 11,6 10,0   Kalm 1,6 1003,6 90 0,80
05:40 11,6 10,0 1,8 ZO 4,8 1003,3 90 0,80
05:46 11,6 10,2   Kalm 3,2 1003,3 91 -
05:50 11,6 10,2   Kalm 1,6 1003,3 91 -
05:56 11,6 10,2   Kalm 1,6 1003,3 91 0,80
06:00 11,5 10,1   Kalm 1,6 1003,3 91 0,80
06:06 11,5 10,1   Kalm 1,6 1003,3 91 0,80
06:10 11,5 10,1   Kalm 6,4 1003,3 91 -
06:16 11,4 10,1   Kalm   1003,3 92 -
06:20 11,4 10,1   Kalm 3,2 1003,3 92 -
06:26 11,5 10,2 1,8 Zuiden 9,7 1003,3 92 0,80
06:30 11,5 10,2 1,8 ZZW 6,4 1002,9 92 0,80
06:36 11,5 10,2 5,0 ZZW 4,8 1003,3 92 0,80
06:40 11,5 10,2   Kalm 4,8 1002,9 92 0,80
06:46 11,5 10,2 3,2 ZZO 4,8 1002,9 92 -
06:50 11,5 10,2 1,8 ZZW 4,8 1002,9 92 -
06:56 11,4 10,1 1,8 ZW 6,4 1002,9 92 -
07:00 11,4 10,1 1,8 ZZW 4,8 1002,9 92 -
07:06 11,4 10,1   Kalm 1,6 1002,9 92 -
07:10 11,3 10,0   Kalm   1002,9 92 -
07:16 11,3 10,0   Kalm   1002,6 92 -
07:20 11,3 10,0   Kalm   1002,6 92 -
07:26 11,3 10,0   Kalm   1002,6 92 -
07:30 11,3 10,0   Kalm   1002,6 92 -
07:36 11,2 9,9   Kalm   1002,6 92 -
07:40 11,2 9,9   Kalm   1002,6 92 -
07:46 11,2 9,9   Kalm 4,8 1002,6 92 -
07:50 11,2 9,9   Kalm 1,6 1002,6 92 -
07:56 11,3 10,0 3,2 ZO 3,2 1002,6 92 -
08:00 11,3 10,0   Kalm 9,7 1002,6 92 -
08:06 11,3 10,0   Kalm 3,2 1002,3 92 -
08:10 11,3 10,0   Kalm 1,6 1002,3 92 -
08:16 11,3 10,0   Kalm 1,6 1002,6 92 -
08:20 11,3 10,0   Kalm 1,6 1002,6 92 -
08:26 11,3 10,2 1,8 OZO 3,2 1002,6 93 -
08:30 11,3 10,2   Kalm 3,2 1002,6 93 -
08:36 11,3 10,2   Kalm 3,2 1002,6 93 -
08:40 11,4 10,3   Kalm 3,2 1002,6 93 0,80
08:46 11,4 10,3 1,8 Zuiden 3,2 1002,6 93 0,80
08:50 11,4 10,3   Kalm 1,6 1002,6 93 0,80
08:56 11,4 10,3   Kalm 1,6 1002,6 93 -
09:00 11,4 10,3 1,8 ZO 3,2 1002,6 93 -
09:06 11,5 10,4 1,8 ZO 8,0 1002,9 93 -
09:10 11,6 10,5 1,8 ZW 8,0 1002,6 93 -
09:16 11,6 10,5   Kalm 3,2 1002,9 93 -
09:20 11,6 10,5 3,2 ZZO 4,8 1002,9 93 -
09:26 11,7 10,6 5,0 NW 8,0 1002,9 93 -
09:30 11,6 10,3 1,8 Westen 4,8 1003,3 92 -
09:36 11,2 9,8 3,2 WZW 4,8 1003,3 91 -
09:40 11,0 9,6   Kalm 3,2 1003,3 91 -
09:46 10,8 9,4 6,9 NNW 6,4 1003,3 91 0,80
09:50 10,7 9,3   Kalm 3,2 1003,3 91 0,80
09:56 10,7 9,5   Kalm 3,2 1003,3 92 0,80
10:00 10,7 9,5 1,8 WNW 1,6 1003,3 92 0,80
10:06 10,6 9,4   Kalm 3,2 1003,3 92 0,80
10:10 10,6 9,4   Kalm   1003,3 92 1,50
10:15 10,6 9,5   Kalm 4,8 1003,3 93 1,50
10:21 10,7 9,6   Kalm   1003,3 93 1,00
10:25 10,7 9,6   Kalm 3,2 1003,3 93 0,80
10:31 10,7 9,6 1,8 Westen 3,2 1003,3 93 -
10:35 10,7 9,6   Kalm 4,8 1003,3 93 -
10:41 10,8 9,7   Kalm 3,2 1003,3 93 0,80
10:45 10,8 9,7   Kalm 1,6 1003,3 93 0,80
10:51 10,9 9,8   Kalm 1,6 1003,3 93 0,80
10:55 11,0 9,9   Kalm 3,2 1003,3 93 -
11:01 11,2 10,1   Kalm 3,2 1003,3 93 -
11:05 11,2 10,1 1,8 ZW 1,6 1003,3 93 -
11:11 11,4 10,3 1,8 WZW 6,4 1003,3 93 -
11:15 11,5 10,4 3,2 WZW 4,8 1003,3 93 -
11:21 11,7 10,6 1,8 Westen 1,6 1003,6 93 -
11:25 11,7 10,6 1,8 WZW 3,2 1003,6 93 -
11:31 11,7 10,6 1,8 WZW 6,4 1003,6 93 -
11:35 11,8 10,7   Kalm 6,4 1003,6 93 -
11:41 11,8 10,5   Kalm 8,0 1003,3 92 -
11:45 11,8 10,5 1,8 ZO 4,8 1003,3 92 -
11:51 11,9 10,6 1,8 ZZW 6,4 1003,3 92 -
11:55 12,0 10,7   Kalm 8,0 1003,6 92 -
12:01 12,2 10,9   Kalm 1,6 1003,6 92 -
12:05 12,3 11,0 5,0 Westen 4,8 1003,3 92 -
12:11 12,4 11,0 3,2 WZW 3,2 1003,6 91 -
12:15 12,6 11,3   Kalm 4,8 1003,6 92 -
12:21 12,8 11,4 3,2 Westen 4,8 1003,6 91 -
12:25 12,9 11,3 3,2 ZZO 4,8 1003,6 90 -
12:31 13,2 11,4 3,2 ZO 6,4 1003,6 89 -
12:35 13,2 11,3 1,8 ZZW 3,2 1003,6 88 -
12:41 13,4 11,5   Kalm 4,8 1003,6 88 -
12:45 13,5 11,6 3,2 ZZW 3,2 1003,6 88 -
12:51 13,7 11,6   Kalm 3,2 1003,3 87 -
12:55 13,8 11,5 3,2 ZW 6,4 1003,3 86 -
13:01 13,8 11,0 1,8 ZZW 8,0 1003,3 83 -
13:05 13,8 11,0 3,2 ZZW 8,0 1003,3 83 -
13:11 13,8 11,0 1,8 ZO 4,8 1003,3 83 -
13:15 13,9 10,9 1,8 Westen 9,7 1003,3 82 -
13:21 14,1 11,3 3,2 Zuiden 4,8 1003,3 83 -
13:25 14,2 11,0 1,8 Westen 3,2 1003,3 81 -
13:31 14,2 10,8 5,0 ZW 6,4 1003,3 80 -
13:35 14,2 10,8 1,8 WZW 3,2 1002,9 80 -
13:41 14,2 10,6 1,8 ZZW 6,4 1003,3 79 -
13:45 14,1 10,7 5,0 WZW 6,4 1002,9 80 -
13:51 14,0 10,6   Kalm 6,4 1002,9 80 -
13:55 14,0 10,6   Kalm 3,2 1002,9 80 -
14:01 13,9 10,7 3,2 Zuiden 6,4 1003,3 81 -
14:05 13,9 10,7   Kalm   1003,3 81 -
14:11 13,9 10,5   Kalm 3,2 1003,3 80 -
14:15 14,0 10,8 1,8 WZW 4,8 1003,3 81 -
14:21 14,1 10,7   Kalm 3,2 1003,3 80 -
14:25 14,1 10,7   Kalm 1,6 1003,3 80 -
14:31 14,2 10,8 1,8 ZZW 6,4 1003,3 80 -
14:35 14,3 10,9   Kalm 4,8 1003,3 80 -
14:41 14,3 10,5   Kalm 4,8 1003,3 78 -
14:45 14,3 10,7   Kalm 4,8 1003,3 79 -
14:51 14,3 10,5   Kalm 1,6 1003,3 78 -
14:55 14,3 10,7 1,8 WZW 3,2 1003,3 79 -
15:01 14,3 10,5 5,0 OZO 4,8 1003,3 78 -
15:05 14,2 10,4 3,2 ZZW 6,4 1003,3 78 -
15:11 14,1 10,3   Kalm 3,2 1003,3 78 -
15:15 14,1 10,5 1,8 ZW 6,4 1003,3 79 -
15:21 14,1 10,3   Kalm 6,4 1003,3 78 -
15:25 14,1 10,5   Kalm 3,2 1003,3 79 -
15:31 14,1 10,5 3,2 ZW 3,2 1003,3 79 -
15:35 14,0 10,4   Kalm 4,8 1003,3 79 -
15:41 13,9 10,3 1,8 Zuiden 6,4 1003,3 79 -
15:45 13,9 10,1   Kalm 4,8 1003,3 78 -
15:51 13,8 10,2 1,8 Westen 4,8 1003,3 79 -
15:55 13,8 10,2   Kalm 4,8 1003,3 79 -
16:01 13,8 10,4 5,0 NNW 4,8 1003,3 80 -
16:05 13,9 10,3   Kalm 3,2 1003,3 79 -
16:11 13,9 10,3   Kalm 3,2 1003,3 79 -
16:15 13,9 10,3   Kalm 1,6 1003,3 79 -
16:21 13,8 10,2 3,2 ZZW 3,2 1003,3 79 -
16:25 13,8 10,2   Kalm 1,6 1003,6 79 -
16:31 13,8 10,4   Kalm 3,2 1003,3 80 -
16:35 13,8 10,4   Kalm 1,6 1003,6 80 -
16:41 13,7 10,3   Kalm 1,6 1003,6 80 -
16:45 13,7 10,3 1,8 Zuiden 3,2 1003,3 80 -
16:51 13,7 10,5   Kalm 3,2 1003,6 81 -
16:55 13,7 10,5   Kalm 4,8 1003,6 81 -
17:01 13,7 10,7 1,8 WZW 3,2 1003,6 82 -
17:05 13,6 10,6   Kalm 1,6 1003,6 82 -
17:11 13,6 10,6 1,8 Westen 3,2 1003,6 82 -
17:15 13,5 10,3   Kalm 4,8 1003,6 81 -
17:21 13,4 10,4   Kalm   1003,9 82 -
17:25 13,4 10,4   Kalm   1003,9 82 -
17:31 13,4 10,4   Kalm   1003,6 82 -
17:35 13,3 10,5   Kalm   1003,6 83 -
17:41 13,3 10,7   Kalm   1003,6 84 -
17:45 13,3 10,7   Kalm   1003,6 84 -
17:51 13,2 10,6   Kalm   1003,6 84 -
17:55 13,1 10,5   Kalm   1003,6 84 -
18:01 13,0 10,4   Kalm   1003,6 84 -
18:05 12,9 10,3   Kalm   1003,6 84 -
18:11 12,8 10,3   Kalm   1003,6 85 -
18:15 12,8 10,3   Kalm   1003,9 85 -
18:21 12,7 10,2   Kalm   1003,9 85 -
18:25 12,5 10,0   Kalm   1003,9 85 -
18:31 12,4 9,9   Kalm   1003,9 85 -
18:35 12,3 9,9   Kalm   1003,9 85 -
18:41 12,1 9,8   Kalm   1003,9 86 -
18:45 12,1 9,8   Kalm   1003,9 86 -
18:51 11,8 9,5   Kalm   1003,9 86 -
18:55 11,7 9,6   Kalm   1003,9 87 -
19:01 11,6 9,5   Kalm   1003,9 87 -
19:05 11,4 9,3   Kalm   1003,9 87 -
19:11 11,3 9,4   Kalm   1003,9 88 -
19:15 11,2 9,3   Kalm   1003,9 88 -
19:21 10,9 9,0   Kalm   1004,3 88 -
19:25 10,8 8,9   Kalm   1004,3 88 -
19:31 10,7 9,0   Kalm   1004,3 89 -
19:35 10,7 9,0   Kalm   1004,3 89 -
19:41 10,5 8,8   Kalm   1004,3 89 -
19:45 10,3 8,6   Kalm   1004,3 89 -
19:51 10,1 8,4   Kalm   1004,3 89 -
19:55 10,0 8,3   Kalm   1004,6 89 -
20:01 9,8 8,2   Kalm   1004,6 90 -
20:05 9,8 8,2   Kalm   1004,6 90 -
20:11 9,7 8,1   Kalm   1004,6 90 -
20:15 9,6 8,2   Kalm   1004,6 91 -
20:21 9,3 7,7   Kalm   1004,6 90 -
20:25 9,2 7,8   Kalm   1004,6 91 -
20:31 9,2 7,8   Kalm   1004,6 91 -
20:35 9,2 7,8   Kalm   1004,6 91 -
20:41 9,0 7,6   Kalm   1005,0 91 -
20:45 8,9 7,5   Kalm   1005,0 91 -
20:51 8,8 7,4   Kalm   1005,0 91 -
20:55 8,7 7,3   Kalm   1005,0 91 -
21:01 8,5 7,1   Kalm   1005,0 91 -
21:05 8,5 7,3   Kalm   1005,0 92 -
21:11 8,5 7,3   Kalm   1005,0 92 -
21:15 8,4 7,2   Kalm   1005,0 92 -
21:21 8,6 7,5   Kalm   1005,3 93 -
21:25 8,7 7,6   Kalm   1005,0 93 -
21:31 8,8 7,7   Kalm   1005,0 93 -
21:35 8,8 7,7   Kalm   1005,3 93 -
21:41 8,8 7,7   Kalm   1005,3 93 -
21:45 8,8 7,7   Kalm   1005,3 93 -
21:51 9,1 8,2   Kalm   1005,3 94 -
21:55 9,1 8,2   Kalm   1005,3 94 -
22:01 9,1 8,2   Kalm   1005,3 94 -
22:05 9,1 8,2   Kalm   1005,6 94 -
22:11 9,1 8,2   Kalm   1005,3 94 -
22:15 9,2 8,3   Kalm   1005,6 94 -
22:21 9,3 8,4   Kalm   1005,6 94 -

Download your copy of this data-set  here

Our weather-data as stored at Weather Underground. Script ontwikkeld door Jim McMurry. Aangepast voor de template door Leuven-Template.eu

U vindt ons ook hier:

Het Weer Aktueel

UK Metoffice

European Weather Network

WeatherCloud

Weather Underground

Benelux Weer Netwerk

AWEKAS

Citizen Weather Observer Program (CWOP)

Apparatuur in gebruik:

Weerstation
Davis VP2

Weerprogramma
Meteobridge

Weercomputer
TP-Link MR3020

Davis VP2

Meteobridge

TP-Link MR3020